Time;durP1;ratioP1;P1;durP2;ratioP2;P2;SDS_P1;SDS_P2;PMS_P1;PMS_P2;Temp;Humidity;BMP_temperature;BMP_pressure;BME280_temperature;BME280_humidity;BME280_pressure;Samples;Min_cycle;Max_cycle;Signal;HPM_P1;HPM_P2
2023/03/06 00:01:39;;;;;;;1.90;1.27;;;15.50;59.40;;;;;;5086729;28;20674;-47
2023/03/06 00:04:09;;;;;;;2.33;1.00;;;15.50;59.40;;;;;;5090259;28;20196;-47
2023/03/06 00:06:38;;;;;;;1.17;0.80;;;15.50;59.50;;;;;;5090354;28;20212;-48
2023/03/06 00:09:09;;;;;;;1.33;1.03;;;15.50;59.50;;;;;;5084294;28;20262;-47
2023/03/06 00:11:42;;;;;;;1.07;0.80;;;15.50;59.50;;;;;;5077388;28;20798;-47
2023/03/06 00:14:13;;;;;;;0.90;0.83;;;15.50;59.60;;;;;;5087197;28;20217;-47
2023/03/06 00:16:43;;;;;;;1.00;0.90;;;15.50;59.50;;;;;;5079631;28;20194;-47
2023/03/06 00:19:10;;;;;;;2.10;0.97;;;15.50;59.40;;;;;;5089631;28;20656;-47
2023/03/06 00:21:43;;;;;;;1.80;1.20;;;15.50;59.50;;;;;;5072742;28;20200;-48
2023/03/06 00:24:13;;;;;;;1.13;0.97;;;15.50;59.40;;;;;;5066997;28;20197;-47
2023/03/06 00:26:42;;;;;;;1.33;0.90;;;15.50;59.50;;;;;;5082276;28;20216;-47
2023/03/06 00:29:19;;;;;;;1.37;1.20;;;15.50;59.60;;;;;;5096812;28;20626;-47
2023/03/06 00:31:47;;;;;;;2.13;1.30;;;15.50;59.70;;;;;;5084020;28;20221;-47
2023/03/06 00:34:18;;;;;;;1.90;0.90;;;15.40;59.50;;;;;;5091965;28;20225;-47
2023/03/06 00:36:50;;;;;;;3.07;1.60;;;15.50;59.60;;;;;;5078509;28;20194;-47
2023/03/06 00:39:17;;;;;;;1.10;1.00;;;15.50;59.70;;;;;;5096647;28;20197;-47
2023/03/06 00:41:49;;;;;;;1.20;1.10;;;15.40;59.60;;;;;;5089339;28;20285;-48
2023/03/06 00:44:20;;;;;;;1.13;0.90;;;15.50;59.80;;;;;;5079768;28;20241;-48
2023/03/06 00:46:51;;;;;;;1.73;1.07;;;15.40;59.60;;;;;;5049346;28;20212;-47
2023/03/06 00:49:23;;;;;;;1.30;1.00;;;15.40;59.50;;;;;;5066734;28;20240;-48
2023/03/06 00:51:54;;;;;;;1.23;1.13;;;15.50;59.60;;;;;;5068527;28;20761;-48
2023/03/06 00:54:28;;;;;;;1.40;1.10;;;15.40;59.60;;;;;;5056965;28;20197;-47
2023/03/06 00:57:08;;;;;;;1.67;1.37;;;15.50;59.60;;;;;;5058241;28;20229;-47
2023/03/06 00:59:38;;;;;;;1.40;1.17;;;15.40;59.60;;;;;;5025407;28;20193;-47
2023/03/06 01:02:20;;;;;;;1.63;1.20;;;15.40;59.60;;;;;;5066539;28;20296;-47
2023/03/06 01:04:50;;;;;;;1.20;1.10;;;15.40;59.60;;;;;;5049149;28;20232;-47
2023/03/06 01:07:20;;;;;;;1.30;1.20;;;15.40;59.60;;;;;;5062831;28;20558;-47
2023/03/06 01:09:50;;;;;;;1.73;1.30;;;15.40;59.70;;;;;;5037782;28;20198;-47
2023/03/06 01:12:22;;;;;;;1.57;1.30;;;15.40;59.60;;;;;;5060941;28;20639;-47
2023/03/06 01:14:53;;;;;;;1.20;1.10;;;15.40;59.60;;;;;;5056781;28;20213;-47
2023/03/06 01:17:24;;;;;;;1.70;1.13;;;15.40;59.60;;;;;;5056046;28;20573;-48
2023/03/06 01:19:56;;;;;;;1.40;1.30;;;15.40;59.60;;;;;;5052485;28;20186;-47
2023/03/06 01:22:26;;;;;;;1.60;1.20;;;15.40;59.60;;;;;;5054352;28;20225;-48
2023/03/06 01:24:59;;;;;;;2.63;1.60;;;15.40;59.60;;;;;;5058192;28;20206;-47
2023/03/06 01:27:28;;;;;;;1.27;1.17;;;15.40;59.60;;;;;;5058967;28;20449;-47
2023/03/06 01:29:58;;;;;;;2.33;1.20;;;15.40;59.50;;;;;;5050083;28;20587;-48
2023/03/06 01:32:30;;;;;;;1.80;1.50;;;15.40;59.60;;;;;;5066247;28;20241;-48
2023/03/06 01:35:03;;;;;;;1.37;1.27;;;15.40;59.60;;;;;;5053931;28;20189;-47
2023/03/06 01:37:31;;;;;;;1.63;1.50;;;15.40;59.60;;;;;;5063876;28;20209;-47
2023/03/06 01:40:05;;;;;;;2.90;1.23;;;15.40;59.60;;;;;;5062563;28;20543;-48
2023/03/06 01:42:35;;;;;;;1.70;1.10;;;15.40;59.60;;;;;;5068602;28;20197;-47
2023/03/06 01:45:16;;;;;;;1.20;1.10;;;15.40;59.60;;;;;;5047522;28;20264;-47
2023/03/06 01:47:45;;;;;;;2.40;1.50;;;15.40;59.60;;;;;;5067711;28;20206;-47
2023/03/06 01:50:14;;;;;;;1.40;1.20;;;15.40;59.60;;;;;;5063953;28;20210;-48
2023/03/06 01:52:49;;;;;;;1.20;1.10;;;15.40;59.60;;;;;;5064971;28;20201;-47
2023/03/06 01:55:36;;;;;;;3.07;1.43;;;15.40;59.60;;;;;;5034715;28;20239;-47
2023/03/06 01:58:27;;;;;;;3.10;1.20;;;15.30;59.50;;;;;;5060566;28;20725;-47
2023/03/06 02:00:57;;;;;;;1.63;1.33;;;15.40;59.50;;;;;;5055878;28;21120;-47
2023/03/06 02:03:48;;;;;;;1.60;1.50;;;15.40;59.60;;;;;;5068433;28;20200;-47
2023/03/06 02:06:37;;;;;;;1.50;1.33;;;15.30;59.50;;;;;;5065109;28;20623;-48
2023/03/06 02:09:06;;;;;;;1.50;1.23;;;15.40;59.50;;;;;;5032938;28;20769;-47
2023/03/06 02:11:42;;;;;;;3.27;1.80;;;15.30;59.60;;;;;;5045858;28;20236;-47
2023/03/06 02:14:36;;;;;;;1.43;1.20;;;15.30;59.50;;;;;;5054754;28;20720;-47
2023/03/06 02:17:06;;;;;;;2.03;1.80;;;15.30;59.50;;;;;;5055808;28;20228;-47
2023/03/06 02:19:52;;;;;;;1.67;1.57;;;15.30;59.50;;;;;;5045449;28;20206;-47
2023/03/06 02:22:20;;;;;;;1.70;1.60;;;15.30;59.40;;;;;;5067977;28;20200;-47
2023/03/06 02:25:29;;;;;;;1.83;1.47;;;15.30;59.50;;;;;;5026573;28;20201;-48
2023/03/06 02:27:59;;;;;;;4.50;1.60;;;15.30;59.40;;;;;;5046298;28;20210;-48
2023/03/06 02:30:33;;;;;;;1.53;1.37;;;15.30;59.60;;;;;;5038241;28;20639;-48
2023/03/06 02:33:02;;;;;;;1.20;1.10;;;15.30;59.50;;;;;;5052845;28;20205;-48
2023/03/06 02:35:52;;;;;;;1.53;1.30;;;15.30;59.50;;;;;;5050536;28;20631;-48
2023/03/06 02:38:28;;;;;;;1.90;1.60;;;15.30;59.40;;;;;;5063530;28;20202;-47
2023/03/06 02:41:06;;;;;;;2.43;1.80;;;15.30;59.40;;;;;;5065277;28;20944;-47
2023/03/06 02:43:39;;;;;;;1.77;1.50;;;15.30;59.40;;;;;;5064811;28;20237;-47
2023/03/06 02:46:07;;;;;;;1.50;1.20;;;15.30;59.40;;;;;;5022315;28;20197;-48
2023/03/06 02:48:35;;;;;;;1.90;1.47;;;15.30;59.30;;;;;;5068070;28;20240;-48
2023/03/06 02:51:06;;;;;;;1.67;1.57;;;15.30;59.40;;;;;;5043842;28;21062;-47
2023/03/06 02:53:37;;;;;;;1.97;1.40;;;15.30;59.40;;;;;;5068003;28;20217;-47
2023/03/06 02:56:09;;;;;;;1.77;1.67;;;15.30;59.30;;;;;;5068156;28;20208;-47
2023/03/06 02:58:51;;;;;;;1.30;1.20;;;15.30;59.20;;;;;;5063107;28;20267;-47
2023/03/06 03:01:53;;;;;;;2.40;2.20;;;15.30;59.20;;;;;;5046865;28;20233;-48
2023/03/06 03:04:21;;;;;;;1.40;1.30;;;15.30;59.20;;;;;;5062204;28;20209;-47
2023/03/06 03:06:53;;;;;;;1.47;1.37;;;15.30;59.40;;;;;;5061770;28;20194;-47
2023/03/06 03:09:22;;;;;;;1.67;1.37;;;15.30;59.30;;;;;;5059853;28;20202;-47
2023/03/06 03:11:52;;;;;;;1.47;1.27;;;15.20;59.30;;;;;;5069901;28;20267;-47
2023/03/06 03:14:24;;;;;;;1.73;1.50;;;15.20;59.30;;;;;;5069942;28;20198;-48
2023/03/06 03:16:54;;;;;;;1.23;1.13;;;15.30;59.30;;;;;;5070849;28;20198;-48
2023/03/06 03:19:22;;;;;;;2.47;1.77;;;15.30;59.30;;;;;;5070660;28;20194;-47
2023/03/06 03:22:05;;;;;;;1.57;1.03;;;15.30;59.30;;;;;;5071382;28;20229;-47
2023/03/06 03:24:46;;;;;;;1.83;1.57;;;15.30;59.40;;;;;;5071286;28;20266;-48
2023/03/06 03:27:17;;;;;;;1.97;1.30;;;15.20;59.30;;;;;;5027572;28;20204;-47
2023/03/06 03:29:48;;;;;;;8.50;1.20;;;15.20;59.30;;;;;;5071587;28;20212;-47
2023/03/06 03:32:17;;;;;;;1.63;1.27;;;15.20;59.30;;;;;;5072526;28;20205;-47
2023/03/06 03:34:45;;;;;;;1.87;1.33;;;15.30;59.30;;;;;;5067521;28;20297;-48
2023/03/06 03:37:16;;;;;;;2.13;1.50;;;15.20;59.30;;;;;;5042010;28;20217;-47
2023/03/06 03:39:44;;;;;;;1.50;1.40;;;15.20;59.40;;;;;;5049778;28;20191;-47
2023/03/06 03:42:20;;;;;;;1.73;1.57;;;15.20;59.30;;;;;;5064040;28;20200;-48
2023/03/06 03:44:51;;;;;;;1.40;1.13;;;15.20;59.30;;;;;;5078404;28;20697;-47
2023/03/06 03:47:22;;;;;;;1.30;1.20;;;15.20;59.30;;;;;;5072671;28;20224;-47
2023/03/06 03:49:51;;;;;;;1.50;1.40;;;15.20;59.30;;;;;;5083239;28;20381;-47
2023/03/06 03:52:21;;;;;;;1.57;1.23;;;15.30;59.30;;;;;;5078255;28;20226;-47
2023/03/06 03:54:59;;;;;;;1.67;1.20;;;15.20;59.40;;;;;;5087302;28;20544;-47
2023/03/06 03:57:29;;;;;;;1.83;1.30;;;15.20;59.30;;;;;;5092971;28;20200;-47
2023/03/06 03:59:58;;;;;;;1.27;1.07;;;15.20;59.30;;;;;;5078012;28;20366;-47
2023/03/06 04:02:27;;;;;;;1.80;1.40;;;15.20;59.30;;;;;;5097075;28;20233;-47
2023/03/06 04:05:00;;;;;;;2.53;1.60;;;15.20;59.30;;;;;;5081384;28;20197;-47
2023/03/06 04:07:31;;;;;;;1.67;1.47;;;15.20;59.30;;;;;;5090899;28;20203;-47
2023/03/06 04:10:03;;;;;;;1.80;1.10;;;15.20;59.30;;;;;;5078355;28;20576;-48
2023/03/06 04:12:31;;;;;;;1.97;1.47;;;15.20;59.20;;;;;;5083897;28;20571;-47
2023/03/06 04:14:58;;;;;;;1.70;1.60;;;15.20;59.20;;;;;;5067709;28;20201;-52
2023/03/06 04:17:29;;;;;;;2.63;1.80;;;15.20;59.20;;;;;;5072492;28;20258;-48
2023/03/06 04:19:58;;;;;;;2.23;1.63;;;15.20;59.30;;;;;;5083268;28;20610;-47
2023/03/06 04:22:31;;;;;;;1.63;1.53;;;15.20;59.20;;;;;;5085734;28;20258;-47
2023/03/06 04:24:58;;;;;;;1.90;1.70;;;15.20;59.90;;;;;;5069004;28;20376;-48
2023/03/06 04:27:34;;;;;;;2.07;1.70;;;15.20;59.30;;;;;;5065554;28;20197;-47
2023/03/06 04:30:06;;;;;;;2.50;1.70;;;15.20;59.30;;;;;;5089363;28;20633;-47
2023/03/06 04:32:34;;;;;;;1.97;1.80;;;15.20;59.30;;;;;;5087635;28;20220;-48
2023/03/06 04:35:02;;;;;;;1.60;1.50;;;15.10;59.20;;;;;;5068595;28;20238;-47
2023/03/06 04:37:29;;;;;;;2.17;1.80;;;15.10;59.30;;;;;;5076528;28;20588;-47
2023/03/06 04:40:04;;;;;;;2.00;1.80;;;15.20;59.30;;;;;;5080482;28;20197;-47
2023/03/06 04:42:34;;;;;;;1.93;1.40;;;15.10;59.20;;;;;;5084557;28;20307;-47
2023/03/06 04:45:13;;;;;;;2.27;1.80;;;15.20;59.30;;;;;;5088833;28;20237;-47
2023/03/06 04:47:40;;;;;;;2.17;1.87;;;15.10;59.20;;;;;;5074365;28;20193;-47
2023/03/06 04:50:14;;;;;;;1.70;1.60;;;15.10;59.30;;;;;;5090261;28;20272;-47
2023/03/06 04:52:44;;;;;;;2.27;2.07;;;15.10;59.20;;;;;;5102677;28;20209;-47
2023/03/06 04:55:17;;;;;;;3.77;2.13;;;15.10;59.20;;;;;;5102004;28;20275;-47
2023/03/06 04:57:59;;;;;;;2.00;1.80;;;15.10;59.20;;;;;;5088193;28;20241;-47
2023/03/06 05:00:33;;;;;;;1.73;1.63;;;15.10;59.30;;;;;;5077017;28;20634;-47
2023/03/06 05:03:02;;;;;;;2.00;1.80;;;15.10;59.30;;;;;;5060445;28;20794;-47
2023/03/06 05:05:31;;;;;;;4.50;2.07;;;15.10;59.20;;;;;;5083886;28;20591;-47
2023/03/06 05:07:59;;;;;;;7.80;1.83;;;15.10;59.60;;;;;;5103254;28;20222;-47
2023/03/06 05:10:34;;;;;;;1.97;1.80;;;15.20;60.20;;;;;;5090824;28;20201;-47
2023/03/06 05:13:08;;;;;;;2.27;2.07;;;15.20;60.30;;;;;;5076690;28;20232;-47
2023/03/06 05:15:39;;;;;;;2.00;1.80;;;15.20;60.30;;;;;;5079427;28;20201;-47
2023/03/06 05:18:11;;;;;;;2.40;2.20;;;15.30;60.20;;;;;;5070143;28;20217;-47
2023/03/06 05:20:40;;;;;;;2.10;1.90;;;15.40;60.30;;;;;;5089481;28;20591;-47
2023/03/06 05:23:10;;;;;;;2.13;1.80;;;15.50;60.70;;;;;;5072020;28;20250;-47
2023/03/06 05:25:46;;;;;;;2.67;2.23;;;15.60;59.80;;;;;;5086514;28;20212;-47
2023/03/06 05:28:16;;;;;;;2.50;2.00;;;15.60;59.50;;;;;;5091382;28;20202;-48
2023/03/06 05:30:47;;;;;;;2.60;2.03;;;15.70;59.40;;;;;;5095018;28;20200;-47
2023/03/06 05:33:18;;;;;;;2.63;2.13;;;15.80;59.30;;;;;;5072072;28;20673;-48
2023/03/06 05:35:47;;;;;;;2.83;2.33;;;15.80;59.30;;;;;;5086359;28;20535;-48
2023/03/06 05:38:17;;;;;;;3.20;2.57;;;15.80;59.30;;;;;;5088032;28;20603;-48
2023/03/06 05:40:48;;;;;;;3.90;2.33;;;15.80;59.30;;;;;;5088052;28;20376;-48
2023/03/06 05:43:19;;;;;;;2.53;2.23;;;15.80;59.80;;;;;;5089667;28;20826;-48
2023/03/06 05:46:04;;;;;;;2.70;2.50;;;15.90;58.70;;;;;;5055683;28;20292;-47
2023/03/06 05:48:36;;;;;;;2.60;2.40;;;15.90;58.30;;;;;;5082454;28;20201;-48
2023/03/06 05:51:08;;;;;;;2.60;2.40;;;15.90;58.10;;;;;;5066007;28;21078;-47
2023/03/06 05:53:38;;;;;;;2.97;2.67;;;15.90;57.90;;;;;;5072849;28;20214;-47
2023/03/06 05:56:07;;;;;;;3.37;2.90;;;15.90;57.80;;;;;;5078577;28;20603;-47
2023/03/06 05:58:38;;;;;;;3.00;2.70;;;15.90;57.70;;;;;;5068965;28;20189;-48
2023/03/06 06:01:17;;;;;;;3.17;2.63;;;15.90;57.60;;;;;;5055999;28;20213;-47
2023/03/06 06:03:48;;;;;;;4.40;3.90;;;15.90;57.60;;;;;;5053292;28;20202;-47
2023/03/06 06:06:19;;;;;;;4.73;3.03;;;15.90;57.60;;;;;;5080874;28;20186;-47
2023/03/06 06:08:51;;;;;;;3.90;3.47;;;15.80;57.60;;;;;;5073256;28;20190;-47
2023/03/06 06:11:30;;;;;;;3.77;3.47;;;15.80;57.70;;;;;;5077902;28;20193;-47
2023/03/06 06:14:00;;;;;;;3.93;3.50;;;15.70;57.70;;;;;;5076005;28;20591;-47
2023/03/06 06:16:34;;;;;;;3.73;3.30;;;15.70;57.80;;;;;;5077619;28;20193;-47
2023/03/06 06:19:07;;;;;;;4.57;4.13;;;15.60;57.90;;;;;;5072046;28;20189;-48
2023/03/06 06:21:40;;;;;;;5.90;3.40;;;15.60;58.00;;;;;;5066092;28;20198;-47
2023/03/06 06:24:10;;;;;;;3.57;3.10;;;15.60;58.00;;;;;;5074102;28;20203;-47
2023/03/06 06:26:41;;;;;;;3.90;3.53;;;15.60;58.10;;;;;;5056397;28;20196;-47
2023/03/06 06:29:10;;;;;;;5.53;4.20;;;15.50;58.10;;;;;;5050451;28;20901;-47
2023/03/06 06:31:41;;;;;;;73.47;17.87;;;15.60;58.10;;;;;;5056785;28;20198;-47
2023/03/06 06:34:12;;;;;;;73.47;18.20;;;15.50;58.80;;;;;;5052366;28;20205;-47
2023/03/06 06:36:45;;;;;;;70.73;18.10;;;15.50;58.80;;;;;;5071550;28;20193;-48
2023/03/06 06:39:20;;;;;;;68.50;16.97;;;15.50;58.70;;;;;;5049535;28;20581;-48
2023/03/06 06:41:54;;;;;;;66.47;15.83;;;15.50;58.70;;;;;;5075510;28;20254;-47
2023/03/06 06:44:47;;;;;;;59.63;14.93;;;15.50;58.60;;;;;;5072438;28;20678;-47
2023/03/06 06:47:19;;;;;;;54.70;14.90;;;15.40;59.10;;;;;;5057767;28;20267;-47
2023/03/06 06:49:54;;;;;;;51.60;14.13;;;15.40;59.00;;;;;;5094915;28;20601;-47
2023/03/06 06:52:24;;;;;;;52.77;14.40;;;15.50;58.90;;;;;;5070339;28;20649;-47
2023/03/06 06:54:55;;;;;;;51.13;13.43;;;15.50;58.80;;;;;;5084057;28;20188;-48
2023/03/06 06:57:27;;;;;;;46.63;13.20;;;15.40;58.60;;;;;;5083166;28;20258;-48
2023/03/06 06:59:58;;;;;;;38.17;12.63;;;15.40;58.60;;;;;;5080587;28;20204;-47
2023/03/06 07:02:26;;;;;;;39.17;11.37;;;15.40;58.50;;;;;;5074787;28;20209;-48
2023/03/06 07:04:57;;;;;;;30.80;11.10;;;15.40;58.30;;;;;;5068229;28;20236;-47
2023/03/06 07:07:39;;;;;;;31.63;11.53;;;15.40;58.20;;;;;;5061152;28;20566;-47
2023/03/06 07:10:14;;;;;;;31.20;9.90;;;15.40;58.20;;;;;;5074387;28;20511;-47
2023/03/06 07:12:49;;;;;;;32.50;10.67;;;15.40;58.10;;;;;;5076347;28;20219;-48
2023/03/06 07:15:20;;;;;;;25.97;9.27;;;15.30;57.90;;;;;;5061417;28;20221;-48
2023/03/06 07:17:48;;;;;;;22.27;9.77;;;15.40;58.00;;;;;;5074093;28;20618;-47
2023/03/06 07:20:16;;;;;;;27.70;8.97;;;15.40;57.90;;;;;;5083341;28;20276;-48
2023/03/06 07:22:46;;;;;;;24.43;9.73;;;15.40;57.90;;;;;;5074625;28;20622;-47
2023/03/06 07:25:20;;;;;;;22.77;8.30;;;15.30;57.80;;;;;;5074754;28;20209;-47
2023/03/06 07:27:53;;;;;;;20.70;8.57;;;15.30;57.80;;;;;;5070138;28;20213;-47
2023/03/06 07:30:22;;;;;;;18.57;7.77;;;15.30;57.80;;;;;;5048579;28;20201;-47
2023/03/06 07:32:57;;;;;;;17.17;8.17;;;15.30;57.70;;;;;;5060048;28;20217;-47
2023/03/06 07:35:31;;;;;;;15.60;7.60;;;15.30;57.70;;;;;;5076368;28;20434;-47
2023/03/06 07:38:01;;;;;;;19.10;8.30;;;15.30;57.70;;;;;;5093056;28;20197;-47
2023/03/06 07:40:35;;;;;;;17.43;8.07;;;15.30;57.70;;;;;;5078939;28;20225;-47
2023/03/06 07:43:08;;;;;;;17.07;7.30;;;15.30;57.60;;;;;;5081317;28;20229;-48
2023/03/06 07:45:46;;;;;;;17.77;7.37;;;15.30;57.60;;;;;;5073502;28;20294;-47
2023/03/06 07:48:20;;;;;;;11.70;7.33;;;15.20;57.60;;;;;;5059369;28;20205;-47
2023/03/06 07:50:58;;;;;;;13.27;6.40;;;15.20;57.60;;;;;;5066940;28;20532;-47
2023/03/06 07:53:30;;;;;;;14.40;7.53;;;15.20;57.60;;;;;;5070079;28;20225;-47
2023/03/06 07:56:07;;;;;;;10.83;6.97;;;15.20;57.50;;;;;;5072730;28;20245;-47
2023/03/06 07:58:42;;;;;;;12.20;6.97;;;15.20;57.50;;;;;;5069700;28;20620;-47
2023/03/06 08:01:14;;;;;;;10.80;6.20;;;15.20;57.50;;;;;;5059906;28;20193;-48
2023/03/06 08:03:43;;;;;;;12.03;6.17;;;15.20;57.50;;;;;;5060198;28;20185;-47
2023/03/06 08:06:21;;;;;;;12.07;7.10;;;15.20;57.50;;;;;;5071368;28;20202;-47
2023/03/06 08:08:49;;;;;;;11.50;6.80;;;15.20;57.50;;;;;;5057375;28;20624;-47
2023/03/06 08:11:23;;;;;;;10.67;6.60;;;15.20;57.40;;;;;;5048619;28;20224;-47
2023/03/06 08:13:55;;;;;;;11.53;7.13;;;15.20;57.30;;;;;;5064249;28;20213;-47
2023/03/06 08:16:25;;;;;;;11.17;6.53;;;15.20;57.30;;;;;;5031663;28;20623;-48
2023/03/06 08:18:58;;;;;;;10.20;6.93;;;15.20;57.40;;;;;;5046975;28;20256;-47
2023/03/06 08:21:27;;;;;;;12.70;7.80;;;15.20;57.30;;;;;;5067909;28;20210;-48
2023/03/06 08:23:55;;;;;;;9.17;6.47;;;15.20;57.30;;;;;;5041383;28;20195;-47
2023/03/06 08:26:34;;;;;;;9.70;6.50;;;15.20;57.30;;;;;;5057462;28;20254;-47
2023/03/06 08:29:06;;;;;;;9.47;6.27;;;15.20;57.30;;;;;;5047979;28;20543;-47
2023/03/06 08:31:42;;;;;;;10.40;6.77;;;15.20;57.30;;;;;;5058043;28;20259;-47
2023/03/06 08:34:18;;;;;;;8.93;5.73;;;15.20;57.40;;;;;;5052389;28;20266;-47
2023/03/06 08:36:52;;;;;;;8.57;5.90;;;15.20;57.30;;;;;;5065318;28;20186;-47
2023/03/06 08:39:22;;;;;;;12.43;6.63;;;15.20;57.30;;;;;;5048188;28;20713;-47
2023/03/06 08:41:54;;;;;;;8.67;6.17;;;15.10;57.30;;;;;;5073438;28;20201;-48
2023/03/06 08:44:24;;;;;;;8.60;5.53;;;15.20;57.30;;;;;;5061152;28;20938;-47
2023/03/06 08:47:02;;;;;;;8.63;5.97;;;15.20;57.30;;;;;;5071217;28;20185;-47
2023/03/06 08:49:34;;;;;;;7.93;5.77;;;15.20;57.30;;;;;;5064289;28;20190;-47
2023/03/06 08:52:05;;;;;;;8.63;5.90;;;15.20;57.20;;;;;;5072415;28;20217;-47
2023/03/06 08:54:37;;;;;;;10.60;6.43;;;15.20;57.20;;;;;;5072335;28;20198;-47
2023/03/06 08:57:09;;;;;;;9.63;5.80;;;15.20;57.20;;;;;;5056517;28;20201;-48
2023/03/06 08:59:40;;;;;;;7.70;5.50;;;15.20;57.20;;;;;;5070261;28;20190;-47
2023/03/06 09:02:14;;;;;;;7.27;5.53;;;15.20;57.20;;;;;;5071014;28;20201;-47
2023/03/06 09:04:42;;;;;;;8.93;5.20;;;15.20;57.10;;;;;;5051800;28;20212;-47
2023/03/06 09:07:14;;;;;;;7.87;5.60;;;15.10;57.10;;;;;;5059234;28;20186;-47
2023/03/06 09:09:43;;;;;;;8.50;5.93;;;15.10;57.00;;;;;;5080589;28;20199;-47
2023/03/06 09:12:11;;;;;;;8.40;5.63;;;15.10;57.00;;;;;;5076182;28;20198;-47
2023/03/06 09:14:54;;;;;;;8.00;5.40;;;15.20;57.10;;;;;;5071681;28;20189;-47
2023/03/06 09:17:25;;;;;;;8.47;5.93;;;15.20;57.10;;;;;;5063271;28;20244;-47
2023/03/06 09:19:57;;;;;;;6.93;4.63;;;15.10;57.00;;;;;;5080453;28;20189;-47
2023/03/06 09:22:26;;;;;;;6.77;5.07;;;15.10;57.60;;;;;;5052528;28;20224;-48
2023/03/06 09:25:06;;;;;;;7.37;5.43;;;15.10;57.00;;;;;;5069378;28;20189;-48
2023/03/06 09:27:41;;;;;;;6.40;5.10;;;15.20;57.10;;;;;;5063734;28;20293;-47
2023/03/06 09:30:10;;;;;;;6.60;5.10;;;15.20;57.00;;;;;;5065429;28;20190;-47
2023/03/06 09:32:40;;;;;;;6.23;5.37;;;15.20;57.10;;;;;;5051002;28;20217;-48
2023/03/06 09:35:13;;;;;;;6.47;4.77;;;15.10;57.00;;;;;;5068822;28;20212;-48
2023/03/06 09:37:46;;;;;;;6.27;5.67;;;15.20;57.00;;;;;;5051234;28;20631;-47
2023/03/06 09:40:54;;;;;;;5.83;5.23;;;15.10;57.00;;;;;;5065735;28;20244;-47
2023/03/06 09:43:42;;;;;;;5.10;4.50;;;15.20;56.90;;;;;;5061016;28;20604;-47
2023/03/06 09:46:53;;;;;;;6.13;5.03;;;15.10;56.90;;;;;;5069533;28;20194;-47
2023/03/06 09:49:52;;;;;;;8.57;5.23;;;15.10;56.90;;;;;;5079623;28;20208;-47
2023/03/06 09:52:57;;;;;;;7.33;5.43;;;15.10;56.90;;;;;;5063076;28;20213;-47
2023/03/06 09:55:29;;;;;;;6.03;5.10;;;15.20;56.90;;;;;;5071875;28;20193;-47
2023/03/06 09:58:22;;;;;;;5.83;5.00;;;15.20;57.00;;;;;;5064376;28;20216;-47
2023/03/06 10:01:26;;;;;;;8.13;5.10;;;15.20;56.80;;;;;;5060566;28;20625;-47
2023/03/06 10:04:33;;;;;;;7.20;5.37;;;15.20;56.80;;;;;;5051895;28;20201;-47
2023/03/06 10:07:24;;;;;;;5.20;4.70;;;15.20;56.80;;;;;;5066649;28;20186;-47
2023/03/06 10:10:01;;;;;;;6.03;4.60;;;15.20;56.80;;;;;;5048501;28;20204;-47
2023/03/06 10:12:47;;;;;;;5.07;4.57;;;15.20;56.80;;;;;;5067779;28;20590;-47
2023/03/06 10:15:24;;;;;;;7.47;5.13;;;15.20;56.80;;;;;;5048519;28;20201;-47
2023/03/06 10:18:03;;;;;;;5.23;4.73;;;15.20;56.80;;;;;;5057659;28;20533;-48
2023/03/06 10:21:20;;;;;;;4.63;4.23;;;15.10;56.70;;;;;;5073117;28;20201;-47
2023/03/06 10:24:08;;;;;;;5.03;4.20;;;15.20;56.70;;;;;;5061945;28;20630;-47
2023/03/06 10:26:58;;;;;;;5.00;4.23;;;15.10;56.80;;;;;;5052212;28;20181;-47
2023/03/06 10:29:38;;;;;;;4.87;4.37;;;15.20;56.70;;;;;;5065396;28;20745;-47
2023/03/06 10:32:57;;;;;;;4.13;3.73;;;15.20;56.70;;;;;;5067548;28;20213;-47
2023/03/06 10:35:51;;;;;;;5.40;3.67;;;15.20;56.70;;;;;;5036370;28;20190;-47
2023/03/06 10:38:39;;;;;;;4.40;3.50;;;15.20;56.70;;;;;;5052254;28;21153;-47
2023/03/06 10:41:34;;;;;;;5.23;3.87;;;15.20;56.70;;;;;;5047180;28;20217;-47
2023/03/06 10:44:05;;;;;;;3.77;3.13;;;15.20;56.60;;;;;;5065830;28;20236;-47
2023/03/06 10:46:42;;;;;;;4.40;3.60;;;15.20;56.60;;;;;;5068292;28;20237;-47
2023/03/06 10:49:36;;;;;;;4.47;3.37;;;15.20;56.60;;;;;;5059274;28;20186;-47
2023/03/06 10:52:20;;;;;;;4.10;3.60;;;15.30;56.60;;;;;;5056047;28;20190;-47
2023/03/06 10:54:47;;;;;;;5.37;4.20;;;15.20;56.50;;;;;;5034926;28;20214;-47
2023/03/06 10:57:26;;;;;;;5.13;3.93;;;15.20;56.60;;;;;;5047045;28;20243;-47
2023/03/06 11:00:13;;;;;;;4.20;3.53;;;15.30;56.60;;;;;;5051185;28;20623;-47
2023/03/06 11:03:08;;;;;;;4.70;3.63;;;15.20;56.50;;;;;;5040938;28;20524;-47
2023/03/06 11:06:08;;;;;;;4.23;3.73;;;15.20;56.50;;;;;;5068088;28;20619;-47
2023/03/06 11:08:42;;;;;;;4.17;3.50;;;15.20;56.50;;;;;;5063907;28;20194;-47
2023/03/06 11:11:26;;;;;;;4.97;3.47;;;15.20;56.50;;;;;;5067686;28;20194;-47
2023/03/06 11:14:16;;;;;;;3.50;3.20;;;15.20;56.50;;;;;;5058078;28;20301;-47
2023/03/06 11:16:52;;;;;;;3.70;3.23;;;15.20;56.50;;;;;;5042967;28;20659;-47
2023/03/06 11:19:36;;;;;;;3.53;3.23;;;15.20;56.50;;;;;;5049493;28;20226;-47
2023/03/06 11:22:17;;;;;;;4.07;3.50;;;15.20;56.50;;;;;;5055029;28;20194;-47
2023/03/06 11:24:49;;;;;;;4.27;2.97;;;15.30;56.50;;;;;;5047049;28;20278;-47
2023/03/06 11:27:33;;;;;;;4.00;3.00;;;15.20;56.50;;;;;;5043129;28;20222;-47
2023/03/06 11:30:22;;;;;;;3.03;2.50;;;15.30;56.50;;;;;;5050100;28;20207;-47
2023/03/06 11:33:01;;;;;;;3.87;2.97;;;15.20;56.50;;;;;;5067024;28;20675;-47
2023/03/06 11:35:53;;;;;;;3.40;2.97;;;15.20;56.50;;;;;;5056467;28;20209;-47
2023/03/06 11:38:50;;;;;;;4.73;2.90;;;15.20;56.50;;;;;;5049379;28;20565;-47
2023/03/06 11:42:03;;;;;;;3.20;2.73;;;15.20;56.50;;;;;;5066352;28;20206;-47
2023/03/06 11:45:14;;;;;;;4.17;3.73;;;15.30;56.50;;;;;;5076154;28;20574;-47
2023/03/06 11:48:16;;;;;;;4.10;3.03;;;15.30;56.50;;;;;;5002221;28;20321;-48
2023/03/06 11:50:52;;;;;;;3.03;2.50;;;15.30;56.50;;;;;;5079912;28;20262;-47
2023/03/06 11:53:37;;;;;;;2.80;2.50;;;15.30;56.50;;;;;;5070283;28;20207;-47
2023/03/06 11:56:24;;;;;;;2.93;2.63;;;15.20;56.50;;;;;;5091106;28;20618;-47
2023/03/06 11:59:22;;;;;;;3.20;2.80;;;15.30;56.50;;;;;;5091587;28;20227;-47
2023/03/06 12:02:20;;;;;;;3.53;2.47;;;15.20;56.50;;;;;;5060919;28;20193;-47
2023/03/06 12:05:07;;;;;;;4.13;2.90;;;15.30;56.50;;;;;;5070208;28;20634;-47
2023/03/06 12:08:36;;;;;;;3.70;3.27;;;15.30;56.60;;;;;;5091048;28;20228;-47
2023/03/06 12:11:29;;;;;;;3.97;3.07;;;15.30;56.50;;;;;;5011406;28;20203;-47
2023/03/06 12:14:26;;;;;;;3.57;3.17;;;15.30;56.50;;;;;;5033548;28;20766;-47
2023/03/06 12:17:05;;;;;;;5.00;3.63;;;15.30;56.50;;;;;;5083821;28;20335;-47
2023/03/06 12:19:51;;;;;;;3.23;2.93;;;15.30;56.50;;;;;;5099122;28;20196;-47
2023/03/06 12:22:46;;;;;;;3.53;3.07;;;15.30;56.50;;;;;;5097797;28;20192;-47
2023/03/06 12:25:59;;;;;;;4.20;3.30;;;15.30;56.40;;;;;;5108793;28;20204;-47
2023/03/06 12:28:54;;;;;;;4.23;3.50;;;15.30;56.40;;;;;;5098551;28;20215;-47
2023/03/06 12:31:52;;;;;;;3.90;3.53;;;15.30;56.40;;;;;;5098494;28;20254;-47
2023/03/06 12:34:56;;;;;;;4.63;4.10;;;15.30;56.40;;;;;;5092288;28;20216;-47
2023/03/06 12:37:47;;;;;;;4.37;3.33;;;15.30;56.40;;;;;;5094440;28;20250;-47
2023/03/06 12:40:43;;;;;;;3.60;3.07;;;15.30;56.40;;;;;;5087042;28;20205;-47
2023/03/06 12:43:51;;;;;;;3.90;3.40;;;15.30;56.50;;;;;;5091830;28;20577;-47
2023/03/06 12:46:27;;;;;;;3.63;3.33;;;15.30;56.40;;;;;;5085889;28;20200;-47
2023/03/06 12:49:28;;;;;;;4.30;3.90;;;15.40;56.50;;;;;;5071499;28;20218;-47
2023/03/06 12:52:04;;;;;;;4.13;3.40;;;15.40;56.50;;;;;;5063133;28;20217;-47
2023/03/06 12:54:38;;;;;;;3.30;3.00;;;15.30;56.50;;;;;;5074557;28;20668;-47
2023/03/06 12:57:32;;;;;;;3.93;3.53;;;15.40;56.50;;;;;;5070663;28;20197;-47
2023/03/06 13:00:32;;;;;;;3.57;3.27;;;15.40;56.40;;;;;;5074538;28;20216;-47
2023/03/06 13:03:20;;;;;;;3.50;3.20;;;15.40;56.50;;;;;;5081217;28;20901;-48
2023/03/06 13:06:37;;;;;;;4.30;3.53;;;15.40;57.00;;;;;;5064653;28;20197;-48
2023/03/06 13:10:04;;;;;;;4.60;3.57;;;15.40;56.40;;;;;;5086306;28;20202;-47
2023/03/06 13:12:54;;;;;;;3.63;3.33;;;15.40;56.40;;;;;;5079751;28;20196;-47
2023/03/06 13:15:41;;;;;;;3.93;3.50;;;15.40;56.50;;;;;;5081666;28;20256;-47
2023/03/06 13:18:32;;;;;;;3.97;3.57;;;15.40;56.50;;;;;;5077481;28;20263;-47
2023/03/06 13:21:26;;;;;;;5.97;3.40;;;15.40;56.40;;;;;;5083014;28;20812;-47
2023/03/06 13:24:04;;;;;;;3.23;2.93;;;15.40;56.40;;;;;;5094878;28;20201;-47
2023/03/06 13:26:38;;;;;;;3.87;3.50;;;15.40;56.40;;;;;;5090687;28;20192;-47
2023/03/06 13:29:39;;;;;;;3.60;3.20;;;15.40;56.40;;;;;;5086813;28;20216;-47
2023/03/06 13:32:26;;;;;;;3.70;3.40;;;15.40;56.40;;;;;;5096444;28;20206;-47
2023/03/06 13:34:57;;;;;;;3.33;3.03;;;15.40;56.40;;;;;;5069035;28;20213;-47
2023/03/06 13:37:31;;;;;;;3.53;2.80;;;15.40;56.50;;;;;;5084063;28;20263;-47
2023/03/06 13:40:13;;;;;;;2.90;2.70;;;15.40;56.40;;;;;;5072032;28;20213;-47